createdAt,value
2023-05-09T00:04:03.640Z,13.40
2023-05-09T00:08:09.934Z,13.40
2023-05-09T00:12:14.601Z,13.50
2023-05-09T00:16:21.046Z,13.50
2023-05-09T00:20:28.476Z,13.60
2023-05-09T00:24:31.785Z,13.60
2023-05-09T00:28:34.995Z,13.60
2023-05-09T00:32:38.100Z,13.60
2023-05-09T00:36:45.172Z,13.60
2023-05-09T00:40:51.462Z,13.60
2023-05-09T00:44:54.430Z,13.60
2023-05-09T00:48:58.923Z,13.60
2023-05-09T00:53:04.523Z,13.60
2023-05-09T00:57:07.539Z,13.60
2023-05-09T01:01:18.198Z,13.70
2023-05-09T01:05:24.379Z,13.70
2023-05-09T01:09:39.289Z,13.60
2023-05-09T01:13:52.062Z,13.60
2023-05-09T01:17:59.649Z,13.60
2023-05-09T01:22:07.257Z,13.60
2023-05-09T01:26:21.009Z,13.50
2023-05-09T01:30:28.650Z,13.50
2023-05-09T01:34:38.901Z,13.50
2023-05-09T01:38:45.353Z,13.50
2023-05-09T01:43:08.376Z,13.50
2023-05-09T01:47:19.634Z,13.40
2023-05-09T01:51:24.652Z,13.40
2023-05-09T01:55:36.137Z,13.40
2023-05-09T01:59:44.828Z,13.40
2023-05-09T02:03:52.713Z,13.30
2023-05-09T02:07:58.852Z,13.30
2023-05-09T02:12:04.634Z,13.30
2023-05-09T02:16:09.354Z,13.30
2023-05-09T02:20:14.260Z,13.30
2023-05-09T02:24:31.013Z,13.30
2023-05-09T02:28:37.554Z,13.20
2023-05-09T02:32:41.752Z,13.20
2023-05-09T02:36:48.348Z,13.10
2023-05-09T02:40:54.381Z,13.10
2023-05-09T02:44:57.680Z,13.10
2023-05-09T02:49:00.826Z,13.10
2023-05-09T02:53:06.779Z,13.10
2023-05-09T02:57:11.193Z,13.10
2023-05-09T03:01:14.219Z,13.00
2023-05-09T03:05:19.430Z,12.90
2023-05-09T03:09:26.675Z,12.90
2023-05-09T03:13:29.686Z,12.80
2023-05-09T03:17:34.621Z,12.80
2023-05-09T03:21:37.773Z,12.70
2023-05-09T03:25:46.371Z,12.70
2023-05-09T03:29:50.940Z,12.60
2023-05-09T03:33:55.667Z,12.60
2023-05-09T03:37:58.956Z,12.50
2023-05-09T03:42:03.555Z,12.50
2023-05-09T03:46:06.650Z,12.50
2023-05-09T03:50:10.933Z,12.40
2023-05-09T03:54:15.948Z,12.40
2023-05-09T03:58:20.694Z,12.40
2023-05-09T04:02:25.598Z,12.40
2023-05-09T04:06:30.160Z,12.40
2023-05-09T04:10:40.126Z,12.40
2023-05-09T04:14:50.083Z,12.50
2023-05-09T04:19:00.319Z,12.60
2023-05-09T04:23:03.432Z,12.70
2023-05-09T04:27:11.952Z,12.80
2023-05-09T04:31:19.463Z,12.90
2023-05-09T04:35:24.415Z,13.00
2023-05-09T04:39:27.431Z,13.10
2023-05-09T04:43:31.325Z,13.20
2023-05-09T04:47:35.748Z,13.30
2023-05-09T04:51:41.289Z,13.40
2023-05-09T04:55:44.615Z,13.60
2023-05-09T04:59:53.005Z,13.70
2023-05-09T05:03:57.598Z,13.80
2023-05-09T05:08:02.418Z,13.90
2023-05-09T05:12:09.312Z,14.00
2023-05-09T05:16:12.885Z,14.10
2023-05-09T05:20:17.374Z,14.20
2023-05-09T05:24:20.407Z,14.40
2023-05-09T05:28:23.604Z,14.50
2023-05-09T05:32:26.727Z,14.70
2023-05-09T05:36:32.021Z,14.80
2023-05-09T05:40:35.320Z,14.90
2023-05-09T05:44:43.921Z,15.10
2023-05-09T05:48:49.971Z,15.20
2023-05-09T05:52:54.392Z,15.20
2023-05-09T05:56:57.424Z,15.40
2023-05-09T06:01:00.914Z,15.40
2023-05-09T06:05:04.860Z,15.50
2023-05-09T06:09:09.698Z,15.80
2023-05-09T06:13:12.720Z,16.00
2023-05-09T06:17:15.854Z,16.10
2023-05-09T06:21:21.768Z,16.20
2023-05-09T06:25:28.191Z,16.30
2023-05-09T06:29:32.456Z,16.70
2023-05-09T06:33:35.475Z,17.20
2023-05-09T06:37:47.727Z,17.90
2023-05-09T06:41:53.220Z,18.80
2023-05-09T06:45:56.553Z,20.10
2023-05-09T06:50:05.490Z,21.30
2023-05-09T06:54:08.506Z,22.10
2023-05-09T06:58:13.721Z,22.50
2023-05-09T07:02:16.839Z,22.60
2023-05-09T07:06:19.887Z,22.90
2023-05-09T07:10:23.312Z,23.10
2023-05-09T07:14:27.820Z,23.30
2023-05-09T07:18:31.043Z,23.40
2023-05-09T07:22:36.406Z,23.40
2023-05-09T07:26:40.277Z,23.30
2023-05-09T07:30:44.850Z,23.30
2023-05-09T07:34:50.887Z,23.30
2023-05-09T07:38:54.724Z,23.50
2023-05-09T07:42:58.755Z,23.40
2023-05-09T07:47:09.196Z,23.10
2023-05-09T07:51:12.479Z,23.00
2023-05-09T07:55:16.070Z,22.80
2023-05-09T07:59:19.428Z,23.10
2023-05-09T08:03:23.978Z,23.40
2023-05-09T08:07:27.016Z,23.40
2023-05-09T08:11:30.730Z,23.50
2023-05-09T08:15:33.773Z,23.40
2023-05-09T08:19:38.182Z,23.70
2023-05-09T08:23:41.767Z,23.70
2023-05-09T08:27:47.479Z,23.60
2023-05-09T08:32:01.336Z,23.80
2023-05-09T08:36:11.898Z,24.30
2023-05-09T08:40:16.965Z,24.80
2023-05-09T08:44:26.395Z,24.80
2023-05-09T08:48:29.903Z,24.60
2023-05-09T08:52:38.941Z,25.30
2023-05-09T08:56:43.968Z,25.70
2023-05-09T09:00:49.072Z,25.90
2023-05-09T09:04:52.133Z,25.80
2023-05-09T09:08:58.171Z,25.80
2023-05-09T09:13:07.515Z,25.90
2023-05-09T09:17:17.013Z,26.40
2023-05-09T09:21:21.405Z,26.50
2023-05-09T09:25:25.853Z,26.50
2023-05-09T09:29:31.811Z,26.90
2023-05-09T09:33:37.687Z,26.90
2023-05-09T09:37:44.412Z,27.10
2023-05-09T09:41:51.713Z,27.20
2023-05-09T09:45:58.238Z,26.90
2023-05-09T09:50:12.102Z,27.30
2023-05-09T09:54:18.341Z,27.20
2023-05-09T09:58:25.080Z,27.30
2023-05-09T10:02:28.106Z,27.50
2023-05-09T10:06:31.341Z,27.40
2023-05-09T10:10:40.271Z,27.40
2023-05-09T10:14:45.346Z,27.40
2023-05-09T10:18:53.800Z,27.80
2023-05-09T10:22:59.096Z,28.10
2023-05-09T10:27:07.558Z,28.30
2023-05-09T10:31:19.011Z,28.30
2023-05-09T10:35:30.285Z,28.40
2023-05-09T10:39:34.172Z,28.40
2023-05-09T10:43:38.105Z,28.40
2023-05-09T10:47:51.684Z,28.40
2023-05-09T10:51:58.272Z,28.50
2023-05-09T10:56:05.087Z,28.60
2023-05-09T11:00:11.736Z,29.00
2023-05-09T11:04:21.508Z,29.40
2023-05-09T11:08:27.178Z,29.60
2023-05-09T11:12:30.138Z,29.60
2023-05-09T11:16:33.217Z,29.10
2023-05-09T11:20:43.592Z,28.70
2023-05-09T11:24:54.153Z,28.60
2023-05-09T11:29:00.813Z,29.10
2023-05-09T11:33:06.917Z,29.30
2023-05-09T11:37:14.065Z,29.60
2023-05-09T11:41:20.041Z,29.70
2023-05-09T11:45:36.629Z,29.80
2023-05-09T11:49:40.100Z,29.90
2023-05-09T11:53:48.134Z,29.90
2023-05-09T11:57:52.568Z,29.60
2023-05-09T12:01:56.696Z,29.40
2023-05-09T12:06:01.712Z,29.60
2023-05-09T12:10:09.439Z,29.30
2023-05-09T12:14:14.072Z,28.60
2023-05-09T12:18:18.580Z,27.90
2023-05-09T12:22:23.166Z,27.20
2023-05-09T12:26:30.323Z,26.60
2023-05-09T12:30:33.993Z,26.20
2023-05-09T12:34:37.406Z,25.90
2023-05-09T12:38:40.994Z,25.80
2023-05-09T12:42:46.986Z,25.80
2023-05-09T12:47:01.001Z,25.90
2023-05-09T12:51:04.561Z,25.70
2023-05-09T12:55:12.704Z,25.60
2023-05-09T12:59:22.002Z,25.70
2023-05-09T13:03:27.427Z,25.90
2023-05-09T13:07:30.551Z,26.10
2023-05-09T13:11:33.698Z,26.20
2023-05-09T13:15:39.178Z,26.00
2023-05-09T13:19:42.197Z,26.20
2023-05-09T13:23:52.380Z,26.40
2023-05-09T13:27:57.830Z,27.00
2023-05-09T13:32:04.405Z,27.90
2023-05-09T13:36:07.835Z,28.40
2023-05-09T13:40:14.477Z,28.70
2023-05-09T13:44:17.667Z,28.70
2023-05-09T13:48:24.022Z,28.80
2023-05-09T13:52:29.864Z,28.90
2023-05-09T13:56:32.920Z,28.80
2023-05-09T14:00:36.893Z,29.00
2023-05-09T14:04:46.462Z,29.00
2023-05-09T14:08:49.709Z,29.10
2023-05-09T14:12:53.568Z,29.10
2023-05-09T14:16:58.878Z,29.30
2023-05-09T14:21:09.640Z,29.20
2023-05-09T14:25:14.164Z,29.00
2023-05-09T14:29:18.070Z,28.80
2023-05-09T14:33:21.310Z,28.80
2023-05-09T14:37:25.670Z,29.00
2023-05-09T14:41:28.695Z,29.20
2023-05-09T14:45:33.968Z,29.40
2023-05-09T14:49:41.645Z,29.30
2023-05-09T14:53:48.814Z,29.60
2023-05-09T14:57:53.769Z,29.90
2023-05-09T15:01:57.072Z,30.00
2023-05-09T15:06:01.831Z,30.10
2023-05-09T15:10:07.245Z,29.80
2023-05-09T15:14:12.358Z,29.50
2023-05-09T15:18:18.517Z,29.10
2023-05-09T15:22:21.569Z,28.80
2023-05-09T15:26:27.518Z,28.40
2023-05-09T15:30:33.426Z,28.10
2023-05-09T15:34:36.467Z,28.10
2023-05-09T15:38:39.517Z,28.20
2023-05-09T15:42:44.027Z,28.40
2023-05-09T15:46:48.314Z,28.30
2023-05-09T15:50:55.985Z,28.40
2023-05-09T15:55:01.443Z,28.60
2023-05-09T15:59:06.438Z,28.50
2023-05-09T16:03:09.647Z,28.70
2023-05-09T16:07:13.853Z,28.40
2023-05-09T16:11:16.841Z,27.90
2023-05-09T16:15:24.191Z,27.50
2023-05-09T16:19:27.669Z,27.20
2023-05-09T16:23:34.121Z,27.20
2023-05-09T16:27:38.368Z,27.20
2023-05-09T16:31:44.996Z,27.30
2023-05-09T16:35:49.728Z,27.20
2023-05-09T16:39:54.607Z,27.20
2023-05-09T16:44:00.504Z,27.20
2023-05-09T16:48:08.104Z,27.20
2023-05-09T16:52:11.180Z,27.30
2023-05-09T16:56:17.186Z,27.50
2023-05-09T17:00:21.106Z,27.60
2023-05-09T17:04:29.375Z,27.40
2023-05-09T17:08:32.493Z,27.20
2023-05-09T17:12:35.875Z,26.90
2023-05-09T17:16:40.573Z,26.40
2023-05-09T17:20:44.975Z,25.80
2023-05-09T17:24:50.410Z,25.20
2023-05-09T17:28:53.414Z,24.70
2023-05-09T17:32:58.297Z,24.20
2023-05-09T17:37:05.719Z,23.70
2023-05-09T17:41:08.796Z,23.40
2023-05-09T17:45:13.129Z,23.00
2023-05-09T17:49:17.741Z,22.60
2023-05-09T17:53:25.879Z,22.40
2023-05-09T17:57:30.404Z,22.10
2023-05-09T18:01:35.285Z,21.90
2023-05-09T18:05:40.284Z,21.60
2023-05-09T18:09:47.696Z,21.40
2023-05-09T18:13:50.848Z,21.10
2023-05-09T18:17:57.740Z,20.90
2023-05-09T18:22:01.611Z,20.70
2023-05-09T18:26:06.222Z,20.40
2023-05-09T18:30:12.473Z,20.20
2023-05-09T18:34:15.561Z,19.90
2023-05-09T18:38:20.762Z,19.70
2023-05-09T18:42:25.255Z,19.50
2023-05-09T18:46:30.012Z,19.30
2023-05-09T18:50:36.224Z,19.10
2023-05-09T18:54:41.519Z,18.90
2023-05-09T18:58:45.916Z,18.70
2023-05-09T19:02:49.096Z,18.50
2023-05-09T19:06:54.251Z,18.30
2023-05-09T19:10:57.318Z,18.20
2023-05-09T19:15:04.338Z,18.00
2023-05-09T19:19:07.715Z,17.70
2023-05-09T19:23:14.615Z,17.50
2023-05-09T19:27:19.730Z,17.40
2023-05-09T19:31:29.078Z,17.10
2023-05-09T19:35:32.428Z,17.00
2023-05-09T19:39:35.479Z,16.80
2023-05-09T19:43:42.558Z,16.60
2023-05-09T19:48:21.310Z,16.50
2023-05-09T19:52:25.802Z,16.40
2023-05-09T19:56:28.822Z,16.40
2023-05-09T20:00:32.309Z,16.40
2023-05-09T20:04:42.612Z,16.40
2023-05-09T20:08:52.180Z,16.40
2023-05-09T20:12:59.197Z,16.30
2023-05-09T20:17:04.280Z,16.30
2023-05-09T20:21:12.934Z,16.30
2023-05-09T20:25:16.098Z,16.40
2023-05-09T20:29:19.115Z,16.30
2023-05-09T20:33:22.237Z,16.30
2023-05-09T20:37:26.717Z,16.30
2023-05-09T20:41:29.958Z,16.30
2023-05-09T20:45:33.501Z,16.20
2023-05-09T20:49:39.570Z,16.10
2023-05-09T20:53:43.972Z,16.10
2023-05-09T20:57:50.798Z,16.10
2023-05-09T21:01:56.552Z,16.10
2023-05-09T21:06:14.838Z,16.20
2023-05-09T21:10:19.682Z,16.20
2023-05-09T21:14:26.095Z,16.20
2023-05-09T21:18:31.067Z,16.20
2023-05-09T21:22:35.310Z,16.30
2023-05-09T21:26:45.258Z,16.20
2023-05-09T21:30:54.698Z,16.20
2023-05-09T21:35:02.436Z,16.20
2023-05-09T21:39:09.129Z,16.10
2023-05-09T21:43:18.309Z,16.10
2023-05-09T21:47:21.775Z,16.10
2023-05-09T21:51:27.386Z,16.00
2023-05-09T21:55:30.720Z,16.00
2023-05-09T21:59:37.966Z,16.00
2023-05-09T22:03:41.174Z,16.00
2023-05-09T22:07:44.420Z,16.00
2023-05-09T22:11:47.524Z,16.00
2023-05-09T22:15:55.094Z,16.00
2023-05-09T22:20:00.945Z,16.00
2023-05-09T22:24:07.712Z,16.00
2023-05-09T22:28:10.753Z,16.00
2023-05-09T22:32:16.815Z,16.00
2023-05-09T22:36:24.312Z,16.00
2023-05-09T22:40:30.184Z,16.00
2023-05-09T22:44:36.350Z,16.00
2023-05-09T22:48:40.850Z,15.90
2023-05-09T22:52:43.892Z,15.90
2023-05-09T22:56:47.448Z,15.90
2023-05-09T23:00:50.779Z,15.80
2023-05-09T23:04:58.059Z,15.80
2023-05-09T23:09:01.175Z,15.80
2023-05-09T23:13:06.303Z,15.80
2023-05-09T23:17:11.179Z,15.70
2023-05-09T23:21:17.682Z,15.70
2023-05-09T23:25:20.836Z,15.70
2023-05-09T23:29:23.842Z,15.70
2023-05-09T23:33:30.931Z,15.70
2023-05-09T23:37:35.370Z,15.70
2023-05-09T23:41:41.144Z,15.70
2023-05-09T23:45:45.408Z,15.60
2023-05-09T23:49:48.486Z,15.60
2023-05-09T23:53:55.087Z,15.60
2023-05-09T23:58:04.326Z,15.60
